Time;durP1;ratioP1;P1;durP2;ratioP2;P2;SDS_P1;SDS_P2;PMS_P1;PMS_P2;Temp;Humidity;BMP_temperature;BMP_pressure;BME280_temperature;BME280_humidity;BME280_pressure;Samples;Min_cycle;Max_cycle;Signal;HPM_P1;HPM_P2
2023/09/07 00:01:09;;;;;;;7.63;4.43;;;;;;;21.42;83.99;98955.63;4957186;28;20030;-69
2023/09/07 00:03:40;;;;;;;8.52;5.00;;;;;;;21.44;84.36;98956.22;4977533;28;20022;-69
2023/09/07 00:06:09;;;;;;;7.65;4.70;;;;;;;21.43;84.21;98952.75;4985742;28;20394;-69
2023/09/07 00:08:37;;;;;;;6.97;4.67;;;;;;;21.41;83.97;98959.25;4981525;28;20022;-70
2023/09/07 00:11:12;;;;;;;6.95;4.97;;;;;;;21.26;84.03;98925.91;4976634;28;20027;-70
2023/09/07 00:13:39;;;;;;;10.30;4.72;;;;;;;21.44;84.41;98956.22;4973821;28;20034;-67
2023/09/07 00:16:05;;;;;;;8.90;4.75;;;;;;;21.47;84.43;98947.91;4982323;28;20053;-68
2023/09/07 00:18:31;;;;;;;9.43;4.80;;;;;;;21.23;85.69;98944.03;4991260;28;20133;-67
2023/09/07 00:20:57;;;;;;;7.07;4.85;;;;;;;21.31;85.74;98943.81;4977760;28;20037;-68
2023/09/07 00:23:22;;;;;;;7.53;5.13;;;;;;;21.37;85.00;98944.84;4978481;28;20035;-71
2023/09/07 00:25:48;;;;;;;8.00;5.00;;;;;;;21.37;85.34;98943.00;4968265;28;20042;-67
2023/09/07 00:28:13;;;;;;;8.88;5.55;;;;;;;21.19;87.37;98948.94;4966313;28;20692;-70
2023/09/07 00:30:39;;;;;;;7.93;4.75;;;;;;;21.28;86.14;98949.53;4967719;28;20486;-65
2023/09/07 00:33:05;;;;;;;7.63;4.80;;;;;;;21.27;86.04;98948.72;4963451;28;20364;-68
2023/09/07 00:35:32;;;;;;;7.13;4.95;;;;;;;21.17;86.11;98952.78;4989362;28;20564;-68
2023/09/07 00:37:58;;;;;;;7.85;5.03;;;;;;;21.15;87.15;98949.53;4963643;28;20065;-66
2023/09/07 00:40:28;;;;;;;7.32;5.00;;;;;;;21.06;86.34;98920.66;4998195;28;20116;-64
2023/09/07 00:42:54;;;;;;;9.50;5.03;;;;;;;21.21;86.77;98944.25;4967391;28;20034;-66
2023/09/07 00:45:19;;;;;;;7.82;4.82;;;;;;;21.29;86.56;98946.69;4960037;28;20037;-67
2023/09/07 00:47:45;;;;;;;7.93;4.88;;;;;;;21.05;88.17;98915.59;4980469;28;20035;-68
2023/09/07 00:50:15;;;;;;;9.32;5.25;;;;;;;21.28;87.38;98947.72;4983508;28;20444;-67
2023/09/07 00:52:42;;;;;;;7.88;5.18;;;;;;;21.34;87.77;98953.16;4967197;28;20034;-67
2023/09/07 00:55:08;;;;;;;9.27;5.10;;;;;;;21.45;87.35;98950.75;4987156;28;20042;-68
2023/09/07 00:57:34;;;;;;;7.57;5.10;;;;;;;21.20;89.61;98952.41;4967219;28;20057;-68
2023/09/07 00:59:59;;;;;;;10.02;5.40;;;;;;;21.26;89.46;98939.16;4983840;28;20134;-68
2023/09/07 01:02:25;;;;;;;7.63;5.65;;;;;;;21.34;88.88;98945.22;4980640;28;20117;-68
2023/09/07 01:04:52;;;;;;;7.60;5.38;;;;;;;21.24;88.69;98922.69;4964041;28;20389;-67
2023/09/07 01:07:20;;;;;;;8.15;5.50;;;;;;;21.34;88.81;98948.72;4977263;28;20077;-65
2023/09/07 01:09:50;;;;;;;7.53;5.20;;;;;;;21.07;88.77;98922.31;4987594;28;20035;-67
2023/09/07 01:12:15;;;;;;;7.68;4.97;;;;;;;20.90;89.23;98931.66;4980247;28;20033;-69
2023/09/07 01:14:41;;;;;;;6.82;4.82;;;;;;;20.97;88.21;98919.25;4994341;28;20026;-68
2023/09/07 01:17:07;;;;;;;8.05;5.70;;;;;;;21.02;88.31;98921.28;4979180;28;20739;-69
2023/09/07 01:19:33;;;;;;;9.13;5.38;;;;;;;21.28;87.65;98957.47;4990665;28;20042;-66
2023/09/07 01:21:59;;;;;;;6.95;4.63;;;;;;;21.17;87.14;98944.88;4998196;28;20059;-68
2023/09/07 01:24:25;;;;;;;8.93;4.95;;;;;;;21.23;87.16;98952.81;4963480;28;21133;-67
2023/09/07 01:26:50;;;;;;;6.72;4.65;;;;;;;21.17;87.59;98947.50;4963890;28;20148;-67
2023/09/07 01:29:19;;;;;;;8.55;5.13;;;;;;;21.20;87.43;98947.91;4989471;28;20108;-68
2023/09/07 01:31:45;;;;;;;7.50;4.80;;;;;;;21.22;87.99;98939.78;5012294;28;20105;-69
2023/09/07 01:34:10;;;;;;;7.43;5.30;;;;;;;20.90;88.59;98918.44;4988998;28;20045;-66
2023/09/07 01:36:35;;;;;;;8.38;5.28;;;;;;;20.77;88.75;98924.53;4980108;28;20077;-67
2023/09/07 01:39:05;;;;;;;7.88;5.05;;;;;;;20.95;88.41;98937.16;4979548;28;20086;-69
2023/09/07 01:41:34;;;;;;;10.25;5.50;;;;;;;21.03;88.70;98946.72;4992843;28;20501;-67
2023/09/07 01:44:01;;;;;;;8.20;5.07;;;;;;;21.12;88.38;98943.66;4970725;28;20112;-65
2023/09/07 01:46:29;;;;;;;10.95;5.05;;;;;;;20.65;91.91;98913.78;4980307;28;20734;-67
2023/09/07 01:48:54;;;;;;;8.80;5.40;;;;;;;20.72;93.89;98942.84;4978503;28;20038;-67
2023/09/07 01:51:22;;;;;;;8.55;5.40;;;;;;;20.94;92.65;98943.47;4980010;28;20035;-67
2023/09/07 01:53:50;;;;;;;7.80;5.40;;;;;;;21.05;91.70;98945.50;4972655;28;20049;-67
2023/09/07 01:56:17;;;;;;;7.05;5.20;;;;;;;21.12;91.36;98938.38;4976113;28;20581;-68
2023/09/07 01:58:45;;;;;;;7.55;5.15;;;;;;;21.16;91.03;98936.13;4999467;28;20149;-71
2023/09/07 02:01:40;;;;;;;7.72;5.20;;;;;;;21.10;90.31;98945.69;4968355;28;20126;-69
2023/09/07 02:04:06;;;;;;;8.15;5.40;;;;;;;20.99;90.50;98940.19;4974006;28;20061;-67
2023/09/07 02:06:33;;;;;;;8.85;5.28;;;;;;;21.10;90.04;98942.22;4977429;28;20494;-67
2023/09/07 02:08:59;;;;;;;7.22;5.25;;;;;;;21.19;89.72;98940.19;4992731;28;20101;-67
2023/09/07 02:11:24;;;;;;;8.95;5.32;;;;;;;21.10;89.74;98948.34;4991231;28;20035;-66
2023/09/07 02:13:49;;;;;;;7.22;5.00;;;;;;;21.07;90.54;98943.44;4975973;28;20030;-67
2023/09/07 02:16:15;;;;;;;7.55;5.10;;;;;;;21.09;89.94;98949.34;4969411;28;20041;-66
2023/09/07 02:18:45;;;;;;;8.70;5.60;;;;;;;21.17;90.01;98945.66;4975405;28;20034;-68
2023/09/07 02:21:11;;;;;;;7.70;5.10;;;;;;;20.96;91.22;98945.91;4997105;28;20042;-69
2023/09/07 02:23:37;;;;;;;8.55;5.10;;;;;;;20.82;92.29;98955.66;4964868;28;20036;-67
2023/09/07 02:26:03;;;;;;;7.30;5.10;;;;;;;20.78;91.92;98952.59;4981057;28;20026;-67
2023/09/07 02:28:31;;;;;;;7.22;5.40;;;;;;;20.63;91.67;98959.91;4975680;28;20504;-68
2023/09/07 02:31:04;;;;;;;8.00;5.35;;;;;;;20.64;90.91;98930.63;4966686;28;20046;-68
2023/09/07 02:33:32;;;;;;;8.43;5.78;;;;;;;20.95;90.47;98949.56;4981972;28;20580;-68
2023/09/07 02:35:57;;;;;;;7.85;4.88;;;;;;;20.77;90.93;98966.81;4984628;28;20589;-68
2023/09/07 02:38:22;;;;;;;8.23;5.22;;;;;;;20.83;91.19;98962.56;4980170;28;20114;-69
2023/09/07 02:40:48;;;;;;;7.22;4.80;;;;;;;20.97;90.94;98966.03;4988720;28;20668;-67
2023/09/07 02:43:16;;;;;;;8.70;5.55;;;;;;;20.96;90.80;98953.84;4966991;28;20057;-67
2023/09/07 02:45:44;;;;;;;8.40;5.50;;;;;;;20.87;91.40;98969.88;4981469;28;20034;-68
2023/09/07 02:48:09;;;;;;;7.50;5.35;;;;;;;20.55;93.97;98968.78;5001045;28;20144;-68
2023/09/07 02:50:35;;;;;;;8.52;5.43;;;;;;;20.39;95.27;98964.72;4985178;28;20073;-67
2023/09/07 02:53:04;;;;;;;9.13;5.75;;;;;;;20.46;95.04;98967.34;4985528;28;20034;-68
2023/09/07 02:55:31;;;;;;;8.40;5.28;;;;;;;20.44;95.50;98964.09;4983210;28;20474;-68
2023/09/07 02:57:59;;;;;;;7.97;5.75;;;;;;;20.33;96.13;98968.97;4965245;28;20030;-69
2023/09/07 03:00:28;;;;;;;7.18;5.60;;;;;;;20.45;95.63;98965.75;4978973;28;20053;-67
2023/09/07 03:02:55;;;;;;;7.63;5.97;;;;;;;20.44;95.78;98969.38;4984533;28;20041;-67
2023/09/07 03:05:23;;;;;;;9.07;5.75;;;;;;;20.30;96.33;98977.28;4986407;28;20042;-68
2023/09/07 03:07:48;;;;;;;8.93;5.72;;;;;;;20.30;96.57;98973.84;4978051;28;20429;-68
2023/09/07 03:10:16;;;;;;;8.48;5.97;;;;;;;20.39;96.33;98975.28;4964010;28;20026;-65
2023/09/07 03:12:42;;;;;;;9.88;5.60;;;;;;;20.18;96.38;98944.53;4980198;28;20035;-66
2023/09/07 03:15:10;;;;;;;9.82;5.50;;;;;;;20.14;96.46;98951.22;4956921;28;20035;-67
2023/09/07 03:17:36;;;;;;;9.02;5.43;;;;;;;20.29;96.32;98965.06;4978550;28;20042;-69
2023/09/07 03:20:13;;;;;;;10.70;5.45;;;;;;;20.28;96.18;98973.19;4982418;28;20057;-68
2023/09/07 03:22:42;;;;;;;8.40;5.70;;;;;;;20.34;95.61;98980.34;4978146;28;20030;-67
2023/09/07 03:25:11;;;;;;;8.30;5.32;;;;;;;20.35;95.57;98976.66;4978321;28;20105;-66
2023/09/07 03:27:39;;;;;;;9.63;6.35;;;;;;;20.34;95.58;98970.56;4983745;28;20038;-67
2023/09/07 03:30:05;;;;;;;8.40;5.68;;;;;;;20.34;95.72;98973.22;4976539;28;20050;-67
2023/09/07 03:32:33;;;;;;;8.63;5.70;;;;;;;20.27;96.10;98968.94;4962490;28;20037;-68
2023/09/07 03:35:06;;;;;;;8.85;5.95;;;;;;;20.30;96.26;98973.84;4993531;28;20018;-68
2023/09/07 03:37:35;;;;;;;9.00;5.95;;;;;;;20.31;95.50;98973.59;4994942;28;20026;-67
2023/09/07 03:40:08;;;;;;;10.65;6.40;;;;;;;20.34;95.60;98972.41;4981068;28;20623;-67
2023/09/07 03:42:34;;;;;;;10.45;5.75;;;;;;;20.26;95.80;98973.41;4989001;28;20062;-67
2023/09/07 03:45:03;;;;;;;7.47;5.45;;;;;;;20.28;95.60;98979.31;4962013;28;20030;-70
2023/09/07 03:47:30;;;;;;;10.90;5.97;;;;;;;20.17;96.20;98979.88;4993477;28;20034;-67
2023/09/07 03:49:58;;;;;;;9.73;5.35;;;;;;;20.06;95.70;98943.47;4966148;28;20030;-67
2023/09/07 03:52:26;;;;;;;8.95;6.13;;;;;;;20.02;95.77;98940.41;4965450;28;20032;-68
2023/09/07 03:54:52;;;;;;;8.68;5.90;;;;;;;20.02;96.04;98947.53;4979933;28;20545;-68
2023/09/07 03:57:21;;;;;;;9.30;5.80;;;;;;;20.13;96.17;98966.28;4967565;28;20031;-68
2023/09/07 03:59:47;;;;;;;8.63;5.90;;;;;;;20.13;95.58;98939.03;4982340;28;20027;-67
2023/09/07 04:02:16;;;;;;;7.88;5.80;;;;;;;20.19;96.07;98969.09;4996605;28;20042;-68
2023/09/07 04:04:44;;;;;;;7.60;5.78;;;;;;;20.08;96.36;98966.03;4959725;28;20448;-67
2023/09/07 04:07:09;;;;;;;8.02;5.80;;;;;;;20.06;97.17;98965.44;4975049;28;20078;-66
2023/09/07 04:09:37;;;;;;;8.25;5.85;;;;;;;20.10;96.53;98964.00;4977976;28;20030;-67
2023/09/07 04:12:06;;;;;;;9.00;5.85;;;;;;;20.04;96.71;98964.81;4973207;28;20678;-67
2023/09/07 04:14:34;;;;;;;9.03;5.87;;;;;;;19.85;96.61;98929.41;4997659;28;20137;-68
2023/09/07 04:16:59;;;;;;;8.27;5.68;;;;;;;20.15;96.23;98960.75;4972829;28;20029;-67
2023/09/07 04:19:27;;;;;;;8.27;5.63;;;;;;;20.03;97.10;98963.16;4976515;28;20034;-70
2023/09/07 04:21:52;;;;;;;11.70;6.15;;;;;;;20.18;96.17;98970.94;4983253;28;20033;-69
2023/09/07 04:24:18;;;;;;;8.30;5.63;;;;;;;19.90;96.44;98921.72;4975616;28;21693;-68
2023/09/07 04:26:43;;;;;;;9.95;5.97;;;;;;;20.17;95.86;98962.22;4975167;28;20062;-68
2023/09/07 04:29:08;;;;;;;10.38;5.75;;;;;;;20.11;96.11;98964.81;4977499;28;20046;-68
2023/09/07 04:31:36;;;;;;;9.70;5.60;;;;;;;19.75;95.58;98903.41;4995209;28;20038;-67
2023/09/07 04:34:04;;;;;;;8.77;6.13;;;;;;;19.96;96.63;98960.50;4988107;28;20484;-68
2023/09/07 04:36:29;;;;;;;7.97;5.82;;;;;;;20.07;96.30;98959.13;4985912;28;20133;-68
2023/09/07 04:38:55;;;;;;;8.60;6.15;;;;;;;19.93;95.76;98925.78;4980735;28;20045;-67
2023/09/07 04:41:20;;;;;;;8.05;5.55;;;;;;;19.84;95.40;98932.22;4966086;28;20440;-66
2023/09/07 04:43:46;;;;;;;8.30;5.90;;;;;;;19.91;96.10;98964.75;4994038;28;20038;-67
2023/09/07 04:46:12;;;;;;;9.25;6.00;;;;;;;20.03;96.39;98965.81;4980672;28;20116;-69
2023/09/07 04:48:38;;;;;;;8.70;5.78;;;;;;;19.98;96.69;98968.22;4978995;28;20576;-67
2023/09/07 04:51:06;;;;;;;9.55;6.07;;;;;;;19.83;97.47;98968.38;4981475;28;20034;-68
2023/09/07 04:53:35;;;;;;;8.25;5.38;;;;;;;19.90;97.46;98963.94;4990363;28;20627;-64
2023/09/07 04:56:05;;;;;;;8.95;6.10;;;;;;;19.91;97.03;98965.53;4967680;28;20030;-67
2023/09/07 04:58:30;;;;;;;10.80;5.70;;;;;;;19.96;96.76;98964.97;4966381;28;20039;-68
2023/09/07 05:01:09;;;;;;;9.77;6.07;;;;;;;19.91;97.02;98967.38;4977601;28;20474;-68
2023/09/07 05:03:35;;;;;;;8.27;5.80;;;;;;;19.98;96.32;98968.22;4976801;28;20405;-68
2023/09/07 05:06:03;;;;;;;7.45;5.63;;;;;;;19.93;95.83;98960.06;4981129;28;20055;-67
2023/09/07 05:08:29;;;;;;;8.63;5.95;;;;;;;19.93;96.00;98968.81;4979389;28;20037;-67
2023/09/07 05:10:56;;;;;;;10.93;6.15;;;;;;;19.94;96.22;98970.44;4965518;28;20030;-69
2023/09/07 05:13:22;;;;;;;9.48;5.97;;;;;;;19.82;95.76;98937.69;4961102;28;20608;-70
2023/09/07 05:15:53;;;;;;;9.68;5.65;;;;;;;19.96;95.89;98978.16;4984982;28;20033;-69
2023/09/07 05:18:22;;;;;;;8.85;6.05;;;;;;;19.93;95.72;98989.94;4975185;28;20115;-65
2023/09/07 05:20:54;;;;;;;9.15;5.90;;;;;;;19.96;95.59;98984.25;4980643;28;20034;-68
2023/09/07 05:23:24;;;;;;;8.10;5.70;;;;;;;20.01;94.42;98977.59;4993912;28;20038;-67
2023/09/07 05:25:52;;;;;;;7.82;5.18;;;;;;;20.07;94.39;98982.06;4976110;28;20474;-66
2023/09/07 05:28:19;;;;;;;8.80;5.40;;;;;;;20.07;93.59;98985.50;4959855;28;20034;-66
2023/09/07 05:30:47;;;;;;;9.18;5.63;;;;;;;20.00;92.73;98978.59;4971000;28;20042;-67
2023/09/07 05:33:16;;;;;;;8.70;5.30;;;;;;;20.08;92.82;98987.16;4977162;28;20102;-68
2023/09/07 05:35:42;;;;;;;7.80;5.35;;;;;;;20.18;91.95;98986.78;4995016;28;20155;-65
2023/09/07 05:38:08;;;;;;;7.85;5.40;;;;;;;20.00;93.12;98982.03;4974516;28;20520;-69
2023/09/07 05:40:34;;;;;;;8.60;5.18;;;;;;;20.09;93.43;98996.69;4981320;28;20129;-68
2023/09/07 05:43:00;;;;;;;9.57;5.30;;;;;;;20.03;92.97;98988.75;4981972;28;20080;-68
2023/09/07 05:45:25;;;;;;;7.40;5.60;;;;;;;20.05;93.01;98990.19;4967360;28;20532;-67
2023/09/07 05:47:53;;;;;;;8.98;5.82;;;;;;;19.91;93.39;98970.03;4992099;28;20177;-69
2023/09/07 05:50:20;;;;;;;7.28;5.28;;;;;;;20.07;93.22;98993.44;4975339;28;20157;-68
2023/09/07 05:52:48;;;;;;;8.65;5.68;;;;;;;20.06;93.22;99002.38;4971659;28;20109;-69
2023/09/07 05:55:14;;;;;;;9.05;5.85;;;;;;;20.06;93.03;98997.09;4978382;28;20034;-68
2023/09/07 05:57:42;;;;;;;7.57;5.28;;;;;;;20.16;92.75;98989.59;4991538;28;20022;-67
2023/09/07 06:00:08;;;;;;;8.90;5.47;;;;;;;20.14;92.91;98996.09;4960008;28;20077;-67
2023/09/07 06:02:36;;;;;;;8.25;6.10;;;;;;;20.13;93.45;98997.09;4977696;28;20509;-68
2023/09/07 06:05:02;;;;;;;7.57;5.47;;;;;;;19.99;93.77;98985.69;4971542;28;20088;-67
2023/09/07 06:07:27;;;;;;;9.02;5.95;;;;;;;19.79;93.83;98953.94;4981643;28;20046;-69
2023/09/07 06:09:55;;;;;;;8.40;5.57;;;;;;;19.94;93.29;98990.75;4985676;28;20539;-65
2023/09/07 06:12:22;;;;;;;7.85;5.45;;;;;;;20.06;93.23;98988.34;4975819;28;20053;-68
2023/09/07 06:14:50;;;;;;;8.20;5.45;;;;;;;20.04;92.98;98991.22;4979027;28;20042;-68
2023/09/07 06:17:15;;;;;;;9.88;5.65;;;;;;;20.14;92.57;98972.34;4978841;28;20034;-68
2023/09/07 06:19:44;;;;;;;8.05;5.63;;;;;;;20.22;93.43;98992.47;4981346;28;20068;-68
2023/09/07 06:22:09;;;;;;;10.37;5.57;;;;;;;19.91;93.88;98962.91;4977536;28;20813;-68
2023/09/07 06:24:40;;;;;;;8.80;5.60;;;;;;;20.13;92.62;98997.09;4962088;28;20041;-69
2023/09/07 06:27:05;;;;;;;8.82;5.78;;;;;;;20.09;92.90;98988.78;4976531;28;20029;-68
2023/09/07 06:29:33;;;;;;;8.02;5.57;;;;;;;20.08;93.04;98994.25;4959839;28;20027;-68
2023/09/07 06:32:00;;;;;;;7.80;5.45;;;;;;;20.12;92.78;98966.47;4973616;28;20069;-68
2023/09/07 06:34:26;;;;;;;8.00;5.43;;;;;;;20.22;93.25;98995.91;4978530;28;20023;-68
2023/09/07 06:36:51;;;;;;;8.50;5.70;;;;;;;20.17;93.23;98991.25;4967982;28;20038;-67
2023/09/07 06:39:17;;;;;;;8.45;5.60;;;;;;;20.31;91.87;98973.59;4976690;28;20029;-68
2023/09/07 06:41:45;;;;;;;8.13;6.05;;;;;;;20.29;93.73;99006.50;4978493;28;20559;-66
2023/09/07 06:44:14;;;;;;;9.02;5.35;;;;;;;20.51;92.91;99000.06;4986874;28;20889;-68
2023/09/07 06:46:41;;;;;;;8.75;5.68;;;;;;;20.38;92.94;98994.75;4978556;28;20031;-67
2023/09/07 06:49:09;;;;;;;9.90;6.25;;;;;;;20.26;93.29;98996.34;4983860;28;20037;-68
2023/09/07 06:51:35;;;;;;;7.50;5.70;;;;;;;20.13;92.85;98961.00;4972033;28;20034;-68
2023/09/07 06:54:03;;;;;;;7.65;5.70;;;;;;;20.31;92.46;98997.38;4989178;28;20100;-68
2023/09/07 06:56:31;;;;;;;9.95;5.93;;;;;;;20.42;92.03;98992.53;4980879;28;20068;-68
2023/09/07 06:58:56;;;;;;;10.95;6.68;;;;;;;20.25;91.61;98989.44;4979866;28;20038;-67
2023/09/07 07:01:24;;;;;;;13.68;6.00;;;;;;;20.28;92.31;98989.03;4991880;28;20022;-68
2023/09/07 07:03:49;;;;;;;10.27;6.43;;;;;;;20.30;90.83;98997.59;4981265;28;20033;-66
2023/09/07 07:06:15;;;;;;;9.50;6.43;;;;;;;20.16;90.75;98960.56;4974707;28;20054;-68
2023/09/07 07:08:40;;;;;;;10.10;6.05;;;;;;;20.37;90.85;98998.44;4987027;28;20861;-68
2023/09/07 07:11:08;;;;;;;7.65;5.57;;;;;;;20.44;90.28;98993.97;4967654;28;20057;-68
2023/09/07 07:13:33;;;;;;;9.52;5.90;;;;;;;20.47;90.32;99001.50;4985988;28;20029;-70
2023/09/07 07:15:59;;;;;;;9.68;6.10;;;;;;;20.43;89.72;98973.06;4970873;28;20038;-69
2023/09/07 07:18:24;;;;;;;9.95;6.35;;;;;;;20.45;90.10;99008.00;4969674;28;20269;-67
2023/09/07 07:20:50;;;;;;;9.93;6.30;;;;;;;20.51;90.09;99010.63;4991454;28;20041;-70
2023/09/07 07:23:16;;;;;;;12.25;6.72;;;;;;;20.43;89.40;98973.84;4970016;28;20018;-68
2023/09/07 07:25:41;;;;;;;11.52;7.15;;;;;;;20.51;89.52;98986.88;4973131;28;20085;-68
2023/09/07 07:28:10;;;;;;;11.48;7.75;;;;;;;20.81;88.81;99012.97;4972217;28;20030;-68
2023/09/07 07:30:38;;;;;;;13.23;7.13;;;;;;;20.93;88.61;99011.34;4973065;28;20049;-70
2023/09/07 07:33:04;;;;;;;13.23;7.97;;;;;;;20.93;87.10;99006.06;4952618;28;20090;-69
2023/09/07 07:35:32;;;;;;;11.07;8.15;;;;;;;20.81;86.18;99012.16;4988009;28;20038;-66
2023/09/07 07:37:58;;;;;;;10.85;6.88;;;;;;;20.67;86.66;99013.97;4976058;28;20105;-65
2023/09/07 07:40:23;;;;;;;11.52;7.32;;;;;;;20.74;86.51;98981.25;4956614;28;20832;-68
2023/09/07 07:42:51;;;;;;;10.25;6.60;;;;;;;21.07;86.49;99008.72;4973344;28;20665;-68
2023/09/07 07:45:19;;;;;;;11.65;6.95;;;;;;;21.10;86.77;99006.50;4975172;28;20061;-67
2023/09/07 07:47:48;;;;;;;11.30;6.75;;;;;;;21.13;87.02;99002.63;4974615;28;20084;-68
2023/09/07 07:50:14;;;;;;;10.00;6.63;;;;;;;21.23;87.33;99010.13;4990599;28;20797;-66
2023/09/07 07:52:44;;;;;;;9.57;6.40;;;;;;;21.02;87.84;98979.44;4959788;28;20018;-67
2023/09/07 07:55:12;;;;;;;9.38;5.97;;;;;;;21.24;87.93;99009.94;4975627;28;20038;-66
2023/09/07 07:57:40;;;;;;;10.40;5.87;;;;;;;21.18;87.35;98997.53;4973668;28;20031;-68
2023/09/07 08:00:06;;;;;;;9.63;5.47;;;;;;;21.28;87.16;99010.34;4960448;28;20033;-65
2023/09/07 08:02:32;;;;;;;9.20;5.68;;;;;;;21.28;87.35;99007.69;4975274;28;20045;-65
2023/09/07 08:05:02;;;;;;;8.27;5.57;;;;;;;21.30;87.33;99003.84;4974302;28;20022;-65
2023/09/07 08:07:28;;;;;;;8.80;5.43;;;;;;;21.34;86.58;98998.97;4975638;28;20042;-68
2023/09/07 08:09:53;;;;;;;10.10;5.63;;;;;;;21.28;85.74;98991.84;4955741;28;20782;-65
2023/09/07 08:12:19;;;;;;;10.48;5.97;;;;;;;21.40;86.51;99007.91;4958083;28;20128;-67
2023/09/07 08:14:44;;;;;;;9.30;5.93;;;;;;;21.29;86.59;99001.41;4971573;28;20030;-66
2023/09/07 08:17:14;;;;;;;8.57;5.78;;;;;;;21.21;86.09;99010.38;4959526;28;20034;-68
2023/09/07 08:19:40;;;;;;;10.75;5.65;;;;;;;21.18;85.78;99009.97;4974499;28;20572;-67
2023/09/07 08:22:06;;;;;;;7.45;5.57;;;;;;;21.30;84.48;98997.72;4974266;28;20034;-66
2023/09/07 08:24:33;;;;;;;10.27;5.90;;;;;;;21.44;85.55;99003.81;4961255;28;20042;-67
2023/09/07 08:27:00;;;;;;;8.27;5.85;;;;;;;21.45;86.12;99008.16;4970974;28;20097;-65
2023/09/07 08:29:26;;;;;;;9.07;5.35;;;;;;;21.28;85.43;98975.97;4958506;28;20022;-67
2023/09/07 08:31:55;;;;;;;9.07;6.18;;;;;;;21.47;84.22;99012.19;4972559;28;20084;-68
2023/09/07 08:34:21;;;;;;;11.05;5.68;;;;;;;21.37;83.65;98998.53;4974752;28;20047;-65
2023/09/07 08:36:49;;;;;;;10.90;6.00;;;;;;;21.38;83.28;99004.66;4975278;28;20030;-69
2023/09/07 08:39:15;;;;;;;13.63;6.40;;;;;;;21.26;82.40;98975.34;4973290;28;20117;-69
2023/09/07 08:41:44;;;;;;;13.32;6.10;;;;;;;21.52;82.86;98995.72;4974849;28;20065;-68
2023/09/07 08:44:19;;;;;;;12.55;6.30;;;;;;;21.51;80.81;99007.31;4970885;28;20057;-64
2023/09/07 08:46:47;;;;;;;13.82;6.60;;;;;;;21.55;83.65;99005.06;4975104;28;20038;-71
2023/09/07 08:49:14;;;;;;;9.82;6.13;;;;;;;21.79;80.89;99004.38;4954172;28;20125;-66
2023/09/07 08:51:42;;;;;;;10.00;5.72;;;;;;;21.63;79.58;98962.50;4974800;28;20030;-67
2023/09/07 08:54:08;;;;;;;9.70;5.90;;;;;;;21.90;79.14;98997.63;4971919;28;20041;-67
2023/09/07 08:56:37;;;;;;;10.25;5.55;;;;;;;21.71;79.38;98964.13;4991975;28;20034;-63
2023/09/07 08:59:03;;;;;;;8.57;5.70;;;;;;;21.95;79.28;98997.84;4974147;28;20034;-67
2023/09/07 09:01:31;;;;;;;8.82;5.10;;;;;;;22.11;77.81;98995.75;4987885;28;20265;-67
2023/09/07 09:03:59;;;;;;;10.05;6.15;;;;;;;22.01;79.65;98967.88;4972995;28;20026;-68
2023/09/07 09:06:27;;;;;;;8.88;6.03;;;;;;;22.07;79.46;98959.09;4982728;28;20062;-68
2023/09/07 09:08:58;;;;;;;9.90;5.90;;;;;;;22.18;76.77;98962.13;4971209;28;20034;-66
2023/09/07 09:11:30;;;;;;;8.98;5.35;;;;;;;22.32;74.92;98979.56;4966833;28;20053;-68
2023/09/07 09:13:55;;;;;;;9.07;5.63;;;;;;;22.30;74.56;98955.13;4984161;28;20125;-67
2023/09/07 09:16:21;;;;;;;9.68;5.38;;;;;;;22.48;76.91;98980.09;4971626;28;20976;-68
2023/09/07 09:18:59;;;;;;;8.70;5.45;;;;;;;22.50;76.99;98956.84;4968670;28;20062;-67
2023/09/07 09:21:25;;;;;;;8.90;5.80;;;;;;;22.83;77.17;98972.53;4970091;28;20042;-66
2023/09/07 09:24:00;;;;;;;8.65;5.78;;;;;;;22.81;75.10;98974.56;4970565;28;20454;-67
2023/09/07 09:26:27;;;;;;;8.90;5.95;;;;;;;22.96;75.63;98966.31;4970717;28;20113;-67
2023/09/07 09:28:55;;;;;;;9.52;6.05;;;;;;;22.97;75.50;98973.25;4969769;28;20030;-67
2023/09/07 09:31:25;;;;;;;9.07;5.82;;;;;;;23.13;75.54;98964.78;4985310;28;20117;-67
2023/09/07 09:33:51;;;;;;;10.23;5.93;;;;;;;23.19;75.54;98960.44;4971630;28;20033;-68
2023/09/07 09:36:17;;;;;;;8.50;5.55;;;;;;;23.26;73.50;98961.19;4954755;28;20106;-69
2023/09/07 09:38:52;;;;;;;9.88;6.38;;;;;;;23.08;74.41;98958.50;4974829;28;20445;-67
2023/09/07 09:41:18;;;;;;;8.20;5.57;;;;;;;23.18;74.74;98958.78;4969702;28;20030;-65
2023/09/07 09:43:45;;;;;;;8.57;6.45;;;;;;;23.28;74.44;98934.44;4971866;28;20559;-66
2023/09/07 09:46:12;;;;;;;7.82;5.85;;;;;;;23.50;75.05;98961.38;4970396;28;20038;-66
2023/09/07 09:48:38;;;;;;;8.77;5.85;;;;;;;23.25;73.80;98924.25;4954465;28;20307;-67
2023/09/07 09:51:04;;;;;;;8.35;5.90;;;;;;;23.60;74.53;98951.84;4971617;28;20108;-66
2023/09/07 09:53:29;;;;;;;10.60;7.30;;;;;;;23.83;73.18;98941.63;4970770;28;20034;-66
2023/09/07 09:55:57;;;;;;;9.63;7.47;;;;;;;24.03;70.19;98944.84;4956606;28;20030;-65
2023/09/07 09:58:25;;;;;;;9.68;6.35;;;;;;;24.14;71.05;98919.34;4956614;28;20049;-67
2023/09/07 10:00:56;;;;;;;12.13;7.13;;;;;;;24.40;67.85;98938.63;4958469;28;20042;-66
2023/09/07 10:03:37;;;;;;;9.57;7.03;;;;;;;24.66;67.15;98935.59;4948704;28;20033;-66
2023/09/07 10:06:22;;;;;;;10.30;6.75;;;;;;;24.73;66.52;98940.78;4974498;28;20061;-67
2023/09/07 10:08:57;;;;;;;10.70;6.82;;;;;;;24.64;64.54;98931.53;4969804;28;20104;-69
2023/09/07 10:11:32;;;;;;;9.45;6.18;;;;;;;24.73;64.71;98932.81;4972316;28;20065;-68
2023/09/07 10:14:05;;;;;;;9.45;6.30;;;;;;;24.60;64.62;98909.91;4988156;28;20034;-66
2023/09/07 10:16:55;;;;;;;12.05;6.50;;;;;;;24.84;64.15;98933.88;4971625;28;20456;-69
2023/09/07 10:19:22;;;;;;;8.95;6.03;;;;;;;24.83;63.49;98922.44;4972449;28;20541;-64
2023/09/07 10:21:48;;;;;;;9.43;6.80;;;;;;;24.87;62.40;98915.63;4971665;28;20034;-66
2023/09/07 10:24:29;;;;;;;9.13;6.13;;;;;;;24.95;63.01;98917.13;4970321;28;20038;-65
2023/09/07 10:27:02;;;;;;;8.65;6.68;;;;;;;25.12;62.07;98907.41;4973639;28;20038;-65
2023/09/07 10:29:27;;;;;;;9.35;6.32;;;;;;;25.45;60.03;98915.84;4950376;28;20041;-65
2023/09/07 10:31:53;;;;;;;10.13;6.25;;;;;;;25.36;60.36;98883.47;4975175;28;20026;-71
2023/09/07 10:34:20;;;;;;;8.63;6.47;;;;;;;25.63;60.54;98904.25;4970392;28;20034;-64
2023/09/07 10:36:46;;;;;;;7.82;5.88;;;;;;;25.63;61.02;98905.06;4957013;28;20393;-66
2023/09/07 10:39:12;;;;;;;10.80;6.85;;;;;;;25.75;57.93;98902.34;4967819;28;20595;-67
2023/09/07 10:42:02;;;;;;;9.52;6.72;;;;;;;25.62;57.78;98902.63;4971483;28;20121;-67
2023/09/07 10:44:29;;;;;;;11.02;6.65;;;;;;;25.61;58.72;98893.81;4985220;28;20038;-67
2023/09/07 10:46:55;;;;;;;8.85;6.28;;;;;;;25.66;58.95;98899.22;4956046;28;20026;-65
2023/09/07 10:49:20;;;;;;;9.52;6.85;;;;;;;25.66;57.37;98859.28;4953532;28;20030;-66
2023/09/07 10:51:46;;;;;;;9.48;6.68;;;;;;;25.71;59.59;98885.22;4971750;28;20022;-67
2023/09/07 10:54:22;;;;;;;8.90;6.90;;;;;;;25.82;60.03;98886.22;4972502;28;20029;-65
2023/09/07 10:56:50;;;;;;;11.07;7.35;;;;;;;25.96;58.96;98884.94;4975032;28;20034;-65
2023/09/07 10:59:17;;;;;;;10.02;6.70;;;;;;;26.05;58.96;98886.16;4974325;28;20029;-66
2023/09/07 11:01:46;;;;;;;10.32;7.35;;;;;;;26.01;58.28;98873.53;4991786;28;20064;-66
2023/09/07 11:04:11;;;;;;;9.63;7.15;;;;;;;26.03;58.37;98863.47;4974302;28;20137;-65
2023/09/07 11:06:38;;;;;;;10.20;6.78;;;;;;;25.94;57.80;98859.56;4966438;28;20048;-67
2023/09/07 11:09:10;;;;;;;11.07;7.03;;;;;;;26.02;58.91;98862.66;4973044;28;20215;-67
2023/09/07 11:11:36;;;;;;;9.98;7.32;;;;;;;25.98;57.93;98861.53;4958492;28;20037;-67
2023/09/07 11:14:05;;;;;;;10.48;7.32;;;;;;;25.96;57.08;98838.84;4988203;28;20224;-67
2023/09/07 11:16:32;;;;;;;10.32;6.93;;;;;;;26.22;55.70;98854.22;4975947;28;20088;-65
2023/09/07 11:19:05;;;;;;;12.23;7.35;;;;;;;26.15;56.74;98855.41;4974922;28;20092;-65
2023/09/07 11:21:32;;;;;;;9.50;7.05;;;;;;;26.26;55.55;98850.00;4959583;28;20034;-67
2023/09/07 11:23:58;;;;;;;9.80;6.63;;;;;;;26.24;56.44;98845.97;4964230;28;20034;-68
2023/09/07 11:26:25;;;;;;;10.32;6.63;;;;;;;26.13;56.32;98822.88;4974868;28;21059;-66
2023/09/07 11:28:53;;;;;;;12.55;6.70;;;;;;;26.25;56.91;98842.28;4974395;28;20030;-63
2023/09/07 11:31:22;;;;;;;14.00;6.30;;;;;;;26.28;56.58;98839.94;4957848;28;20057;-63
2023/09/07 11:33:49;;;;;;;9.95;6.22;;;;;;;26.18;55.55;98818.44;4990761;28;20065;-65